Time;durP1;ratioP1;P1;durP2;ratioP2;P2;SDS_P1;SDS_P2;PMS_P1;PMS_P2;Temp;Humidity;BMP_temperature;BMP_pressure;BME280_temperature;BME280_humidity;BME280_pressure;Samples;Min_cycle;Max_cycle;Signal;HPM_P1;HPM_P2
2022/07/16 00:02:53;;;;;;;0.70;0.50;;;23.30;46.50;;;;;;6198455;28;20022;-69
2022/07/16 00:05:54;;;;;;;0.40;0.40;;;23.20;46.30;;;;;;6197859;28;20033;-69
2022/07/16 00:08:55;;;;;;;0.63;0.47;;;23.30;46.30;;;;;;6198057;28;20128;-69
2022/07/16 00:11:56;;;;;;;0.40;0.38;;;23.30;46.30;;;;;;6198116;28;20069;-69
2022/07/16 00:14:57;;;;;;;0.80;0.60;;;23.20;46.20;;;;;;6198086;28;20034;-69
2022/07/16 00:21:17;;;;;;;0.60;0.60;;;23.30;46.20;;;;;;6198362;28;20030;-69
2022/07/16 00:24:18;;;;;;;0.38;0.30;;;23.30;46.30;;;;;;6197648;28;20072;-70
2022/07/16 00:27:19;;;;;;;0.40;0.40;;;23.30;46.20;;;;;;6197893;28;20061;-69
2022/07/16 00:30:19;;;;;;;0.57;0.57;;;23.30;46.20;;;;;;6197496;28;20023;-69
2022/07/16 00:33:20;;;;;;;0.50;0.40;;;23.30;46.10;;;;;;6197973;28;20036;-70
2022/07/16 00:36:21;;;;;;;0.88;0.47;;;23.20;46.10;;;;;;6197619;28;20224;-69
2022/07/16 00:39:21;;;;;;;0.50;0.50;;;23.20;46.10;;;;;;6197338;28;20105;-69
2022/07/16 00:42:22;;;;;;;0.60;0.60;;;23.30;46.10;;;;;;6197368;28;20110;-69
2022/07/16 00:45:23;;;;;;;0.65;0.50;;;23.30;46.00;;;;;;6197149;28;20037;-69
2022/07/16 00:48:23;;;;;;;0.60;0.55;;;23.30;46.00;;;;;;6197567;28;20121;-69
2022/07/16 00:51:26;;;;;;;0.50;0.30;;;23.30;45.90;;;;;;6197055;28;20031;-69
2022/07/16 00:54:26;;;;;;;0.60;0.60;;;23.30;45.90;;;;;;6196837;28;20613;-69
2022/07/16 00:57:27;;;;;;;0.43;0.38;;;23.30;45.90;;;;;;6197223;28;20073;-69
2022/07/16 01:00:29;;;;;;;0.40;0.40;;;23.30;45.90;;;;;;6196993;28;20026;-70
2022/07/16 01:03:30;;;;;;;0.57;0.43;;;23.30;45.90;;;;;;6196795;28;20027;-69
2022/07/16 01:06:31;;;;;;;0.38;0.38;;;23.30;45.80;;;;;;6196738;28;20120;-70
2022/07/16 01:09:33;;;;;;;0.50;0.50;;;23.30;45.80;;;;;;6196698;28;20092;-69
2022/07/16 01:12:34;;;;;;;0.70;0.40;;;23.20;46.30;;;;;;6197037;28;20031;-70
2022/07/16 01:15:35;;;;;;;0.35;0.32;;;23.00;47.50;;;;;;6196476;28;20140;-69
2022/07/16 01:18:36;;;;;;;0.47;0.47;;;22.90;47.30;;;;;;6196662;28;20022;-69
2022/07/16 01:21:38;;;;;;;0.50;0.50;;;22.90;47.60;;;;;;6196528;28;20054;-70
2022/07/16 01:24:40;;;;;;;0.65;0.55;;;22.80;47.90;;;;;;6196035;28;20494;-69
2022/07/16 01:27:40;;;;;;;0.60;0.50;;;22.80;48.20;;;;;;6196203;28;20018;-70
2022/07/16 01:30:41;;;;;;;0.50;0.50;;;22.70;48.20;;;;;;6196152;28;20037;-69
2022/07/16 01:33:42;;;;;;;0.47;0.47;;;22.70;48.60;;;;;;6195695;28;20101;-69
2022/07/16 01:36:52;;;;;;;0.50;0.40;;;22.70;49.20;;;;;;6196130;28;20077;-70
2022/07/16 01:39:53;;;;;;;0.50;0.43;;;22.60;49.40;;;;;;6196215;28;20498;-70
2022/07/16 01:42:54;;;;;;;0.40;0.30;;;22.60;49.60;;;;;;6196233;28;20034;-69
2022/07/16 01:45:56;;;;;;;0.40;0.38;;;22.60;49.70;;;;;;6195775;28;20085;-70
2022/07/16 01:48:56;;;;;;;0.40;0.40;;;22.60;49.80;;;;;;6196021;28;20046;-69
2022/07/16 01:51:57;;;;;;;0.50;0.43;;;22.60;49.80;;;;;;6195950;28;20496;-70
2022/07/16 01:54:58;;;;;;;0.30;0.30;;;22.60;49.70;;;;;;6195538;28;20101;-70
2022/07/16 01:57:58;;;;;;;0.45;0.45;;;22.60;49.80;;;;;;6196173;28;20030;-70
2022/07/16 02:00:59;;;;;;;0.60;0.60;;;22.60;49.90;;;;;;6196136;28;20030;-70
2022/07/16 02:04:00;;;;;;;0.40;0.40;;;22.60;50.30;;;;;;6194840;28;20552;-69
2022/07/16 02:07:00;;;;;;;1.60;0.47;;;22.50;50.20;;;;;;6195534;28;20071;-69
2022/07/16 02:10:01;;;;;;;0.63;0.50;;;22.50;49.90;;;;;;6195762;28;20105;-70
2022/07/16 02:13:03;;;;;;;0.40;0.40;;;22.50;50.00;;;;;;6195771;28;20409;-69
2022/07/16 02:16:04;;;;;;;0.40;0.40;;;22.50;50.40;;;;;;6194984;28;20511;-69
2022/07/16 02:19:05;;;;;;;0.30;0.30;;;22.50;50.40;;;;;;6195226;28;20022;-70
2022/07/16 02:22:07;;;;;;;0.52;0.52;;;22.50;50.20;;;;;;6177762;28;20126;-70
2022/07/16 02:25:09;;;;;;;0.68;0.60;;;22.50;50.20;;;;;;6195430;28;20030;-69
2022/07/16 02:28:10;;;;;;;0.47;0.40;;;22.50;50.30;;;;;;6195061;28;20058;-69
2022/07/16 02:31:10;;;;;;;0.40;0.40;;;22.50;50.40;;;;;;6194753;28;20038;-70
2022/07/16 02:34:11;;;;;;;0.70;0.50;;;22.50;50.60;;;;;;6195233;28;20489;-70
2022/07/16 02:37:12;;;;;;;0.40;0.40;;;22.50;50.50;;;;;;6190264;28;20037;-69
2022/07/16 02:40:13;;;;;;;0.60;0.40;;;22.50;50.70;;;;;;6194932;28;20077;-70
2022/07/16 02:43:14;;;;;;;0.50;0.50;;;22.50;50.60;;;;;;6194651;28;20042;-70
2022/07/16 02:46:15;;;;;;;0.38;0.30;;;22.50;50.70;;;;;;6194386;28;20061;-70
2022/07/16 02:49:15;;;;;;;0.50;0.38;;;22.50;50.60;;;;;;6194331;28;20414;-69
2022/07/16 02:52:16;;;;;;;0.50;0.40;;;22.50;50.70;;;;;;6194563;28;20038;-70
2022/07/16 02:55:17;;;;;;;0.73;0.50;;;22.50;50.70;;;;;;6194055;28;20370;-69
2022/07/16 02:58:17;;;;;;;0.40;0.40;;;22.50;50.70;;;;;;6194623;28;20166;-70
2022/07/16 03:01:18;;;;;;;0.35;0.35;;;22.50;50.70;;;;;;6194424;28;20027;-70
2022/07/16 03:04:19;;;;;;;0.20;0.20;;;22.50;50.70;;;;;;6194880;28;20026;-69
2022/07/16 03:07:19;;;;;;;0.75;0.52;;;22.40;50.80;;;;;;6194071;28;20077;-70
2022/07/16 03:10:20;;;;;;;0.38;0.38;;;22.40;50.80;;;;;;6194233;28;20026;-69
2022/07/16 03:13:21;;;;;;;0.30;0.30;;;22.40;50.80;;;;;;6194408;28;20129;-70
2022/07/16 03:16:22;;;;;;;0.40;0.40;;;22.40;50.80;;;;;;6195089;28;20089;-71
2022/07/16 03:19:22;;;;;;;0.57;0.47;;;22.40;50.90;;;;;;6194282;28;20482;-70
2022/07/16 03:22:23;;;;;;;0.55;0.30;;;22.40;50.90;;;;;;6194275;28;20069;-69
2022/07/16 03:25:23;;;;;;;0.55;0.40;;;22.40;50.90;;;;;;6194090;28;20026;-68
2022/07/16 03:28:24;;;;;;;0.70;0.50;;;22.40;50.90;;;;;;6194299;28;20446;-68
2022/07/16 03:31:25;;;;;;;0.45;0.43;;;22.40;50.90;;;;;;6194099;28;20358;-69
2022/07/16 03:34:25;;;;;;;0.30;0.30;;;22.40;51.00;;;;;;6194727;28;20030;-70
2022/07/16 03:37:26;;;;;;;0.57;0.50;;;22.40;51.00;;;;;;6193752;28;20046;-70
2022/07/16 03:40:27;;;;;;;0.47;0.40;;;22.40;51.10;;;;;;6194025;28;20069;-70
2022/07/16 03:43:28;;;;;;;0.30;0.30;;;22.40;51.00;;;;;;6193975;28;20362;-70
2022/07/16 03:46:29;;;;;;;0.40;0.40;;;22.40;51.00;;;;;;6194311;28;20030;-67
2022/07/16 03:49:29;;;;;;;0.47;0.40;;;22.40;51.10;;;;;;6193618;28;20058;-67
2022/07/16 03:52:30;;;;;;;0.55;0.40;;;22.40;51.20;;;;;;6193671;28;20119;-67
2022/07/16 03:55:30;;;;;;;0.43;0.40;;;22.40;51.30;;;;;;6193331;28;20105;-70
2022/07/16 03:58:31;;;;;;;0.35;0.35;;;22.40;51.30;;;;;;6193645;28;20058;-69
2022/07/16 04:01:32;;;;;;;0.38;0.30;;;22.40;51.30;;;;;;6192783;28;20425;-70
2022/07/16 04:04:32;;;;;;;0.43;0.35;;;22.40;51.30;;;;;;6193386;28;20102;-69
2022/07/16 04:07:33;;;;;;;0.55;0.50;;;22.40;51.40;;;;;;6193366;28;20382;-69
2022/07/16 04:10:34;;;;;;;0.40;0.30;;;22.40;51.30;;;;;;6193698;28;20026;-69
2022/07/16 04:13:37;;;;;;;0.40;0.40;;;22.40;51.40;;;;;;6193425;28;20034;-70
2022/07/16 04:16:38;;;;;;;0.50;0.50;;;22.40;52.10;;;;;;6184004;28;20090;-69
2022/07/16 04:19:38;;;;;;;0.63;0.40;;;22.40;51.50;;;;;;6169285;28;20031;-69
2022/07/16 04:22:39;;;;;;;0.38;0.38;;;22.40;52.60;;;;;;6169414;28;20097;-69
2022/07/16 04:25:40;;;;;;;0.40;0.40;;;22.50;50.00;;;;;;6192421;28;20061;-69
2022/07/16 04:28:41;;;;;;;0.90;0.75;;;22.60;49.40;;;;;;6197447;28;20034;-69
2022/07/16 04:31:41;;;;;;;0.75;0.30;;;22.70;48.90;;;;;;6197167;28;20089;-69
2022/07/16 04:34:42;;;;;;;0.45;0.45;;;22.80;48.50;;;;;;6197932;28;20039;-69
2022/07/16 04:37:43;;;;;;;0.75;0.40;;;22.90;48.30;;;;;;6197541;28;20073;-69
2022/07/16 04:40:44;;;;;;;0.32;0.30;;;23.00;48.00;;;;;;6197495;28;20026;-69
2022/07/16 04:43:44;;;;;;;0.50;0.40;;;23.00;47.80;;;;;;6197320;28;20208;-70
2022/07/16 04:46:45;;;;;;;0.50;0.50;;;23.00;47.50;;;;;;6197470;28;20030;-69
2022/07/16 04:49:46;;;;;;;0.30;0.30;;;23.10;47.30;;;;;;6197152;28;20516;-69
2022/07/16 04:52:46;;;;;;;0.20;0.20;;;23.20;47.40;;;;;;6197480;28;20456;-70
2022/07/16 04:55:47;;;;;;;0.82;0.40;;;23.10;47.10;;;;;;6196872;28;20417;-67
2022/07/16 04:58:47;;;;;;;0.35;0.35;;;23.20;47.10;;;;;;6197145;28;20026;-67
2022/07/16 05:01:48;;;;;;;0.40;0.40;;;23.20;47.00;;;;;;6196061;28;20049;-67
2022/07/16 05:04:49;;;;;;;1.05;0.57;;;23.20;46.90;;;;;;6196879;28;20026;-67
2022/07/16 05:07:49;;;;;;;0.47;0.40;;;23.20;46.80;;;;;;6196999;28;20037;-69
2022/07/16 05:10:50;;;;;;;0.50;0.40;;;23.20;46.80;;;;;;6196576;28;20027;-69
2022/07/16 05:13:53;;;;;;;0.55;0.40;;;23.20;46.70;;;;;;6196924;28;20038;-69
2022/07/16 05:16:55;;;;;;;0.30;0.30;;;23.20;46.70;;;;;;6196658;28;20173;-69
2022/07/16 05:19:55;;;;;;;0.30;0.30;;;23.20;46.60;;;;;;6196703;28;20080;-69
2022/07/16 05:22:56;;;;;;;0.30;0.30;;;23.20;46.60;;;;;;6187006;28;20279;-70
2022/07/16 05:25:57;;;;;;;0.35;0.35;;;23.20;46.40;;;;;;6191154;28;20370;-69
2022/07/16 05:28:58;;;;;;;0.20;0.20;;;23.20;46.30;;;;;;6196556;28;20030;-70
2022/07/16 05:31:58;;;;;;;0.40;0.35;;;23.30;46.40;;;;;;6195916;28;20090;-69
2022/07/16 05:34:59;;;;;;;0.40;0.40;;;23.20;46.30;;;;;;6196057;28;20328;-69
2022/07/16 05:37:59;;;;;;;0.43;0.40;;;23.20;46.30;;;;;;6195604;28;20015;-69
2022/07/16 05:41:01;;;;;;;0.20;0.20;;;23.20;46.30;;;;;;6196524;28;20064;-70
2022/07/16 05:44:02;;;;;;;0.50;0.47;;;23.20;46.20;;;;;;6196278;28;20140;-70
2022/07/16 05:47:02;;;;;;;1.38;0.30;;;23.20;46.10;;;;;;6194992;28;20026;-69
2022/07/16 05:50:04;;;;;;;0.60;0.40;;;23.20;46.10;;;;;;6192241;28;20069;-69
2022/07/16 05:53:05;;;;;;;0.40;0.40;;;23.20;46.10;;;;;;6195703;28;20034;-70
2022/07/16 05:56:06;;;;;;;0.52;0.40;;;23.20;46.10;;;;;;6195999;28;20058;-70
2022/07/16 05:59:06;;;;;;;0.93;0.40;;;23.30;46.10;;;;;;6196005;28;20022;-69
2022/07/16 06:02:07;;;;;;;0.40;0.40;;;23.20;46.60;;;;;;6192613;28;20026;-69
2022/07/16 06:05:09;;;;;;;0.57;0.30;;;23.30;46.10;;;;;;6195950;28;20022;-70
2022/07/16 06:08:09;;;;;;;0.65;0.40;;;23.20;46.00;;;;;;6195730;28;20080;-69
2022/07/16 06:11:10;;;;;;;0.35;0.35;;;23.20;46.00;;;;;;6195446;28;20030;-70
2022/07/16 06:14:10;;;;;;;0.52;0.40;;;23.20;46.00;;;;;;6195478;28;20033;-70
2022/07/16 06:17:11;;;;;;;0.55;0.35;;;23.30;45.90;;;;;;6195315;28;20504;-70
2022/07/16 06:20:12;;;;;;;0.35;0.35;;;23.30;46.00;;;;;;6195506;28;20142;-69
2022/07/16 06:23:13;;;;;;;0.50;0.50;;;23.30;46.00;;;;;;6195098;28;20104;-69
2022/07/16 06:26:14;;;;;;;0.75;0.40;;;23.30;46.00;;;;;;6195251;28;20024;-70
2022/07/16 06:29:16;;;;;;;0.40;0.40;;;23.30;45.90;;;;;;6195270;28;20026;-70
2022/07/16 06:32:16;;;;;;;0.35;0.35;;;23.30;45.80;;;;;;6194674;28;20452;-69
2022/07/16 06:35:17;;;;;;;1.23;0.50;;;23.30;45.80;;;;;;6195046;28;20058;-69
2022/07/16 06:38:17;;;;;;;0.35;0.35;;;23.30;45.90;;;;;;6195402;28;20022;-70
2022/07/16 06:41:18;;;;;;;1.08;0.50;;;23.30;45.80;;;;;;6194365;28;20109;-69
2022/07/16 06:44:19;;;;;;;0.65;0.50;;;23.30;45.80;;;;;;6194548;28;20094;-69
2022/07/16 06:47:19;;;;;;;0.82;0.43;;;23.30;45.80;;;;;;6194513;28;20498;-69
2022/07/16 06:50:21;;;;;;;0.40;0.30;;;23.30;45.80;;;;;;6194673;28;20081;-69
2022/07/16 06:53:22;;;;;;;0.57;0.50;;;23.30;46.50;;;;;;6194491;28;20037;-70
2022/07/16 06:56:23;;;;;;;0.77;0.55;;;23.30;45.80;;;;;;6194676;28;20048;-69
2022/07/16 06:59:23;;;;;;;0.50;0.40;;;23.20;46.40;;;;;;6194752;28;20499;-69
2022/07/16 07:02:24;;;;;;;0.55;0.30;;;23.00;47.00;;;;;;6194468;28;20081;-69
2022/07/16 07:05:25;;;;;;;1.13;0.47;;;22.90;47.20;;;;;;6194522;28;20474;-70
2022/07/16 07:08:25;;;;;;;0.40;0.30;;;22.80;47.40;;;;;;6194376;28;20126;-70
2022/07/16 07:11:26;;;;;;;0.55;0.40;;;22.80;47.80;;;;;;6176996;28;20038;-70
2022/07/16 07:14:27;;;;;;;0.47;0.43;;;22.70;48.00;;;;;;6194711;28;20489;-69
2022/07/16 07:17:27;;;;;;;0.50;0.40;;;22.70;48.20;;;;;;6194505;28;20030;-69
2022/07/16 07:20:29;;;;;;;0.50;0.40;;;22.70;48.50;;;;;;6177218;28;20058;-69
2022/07/16 07:23:30;;;;;;;0.45;0.45;;;22.60;49.10;;;;;;6194385;28;20377;-70
2022/07/16 07:26:31;;;;;;;0.57;0.40;;;22.60;49.30;;;;;;6176457;28;20202;-69
2022/07/16 07:29:32;;;;;;;0.40;0.40;;;22.60;49.60;;;;;;6194161;28;20041;-70
2022/07/16 07:32:32;;;;;;;0.63;0.50;;;22.60;49.80;;;;;;6193905;28;20116;-70
2022/07/16 07:35:33;;;;;;;1.08;0.60;;;22.60;49.90;;;;;;6194083;28;20077;-70
2022/07/16 07:38:34;;;;;;;1.05;0.40;;;22.60;49.80;;;;;;6194380;28;20026;-69
2022/07/16 07:41:34;;;;;;;0.40;0.40;;;22.60;49.80;;;;;;6194354;28;20084;-69
2022/07/16 07:44:35;;;;;;;0.50;0.50;;;22.60;49.70;;;;;;6193944;28;20034;-69
2022/07/16 07:47:37;;;;;;;0.55;0.35;;;22.60;49.80;;;;;;6192335;28;20037;-70
2022/07/16 07:50:38;;;;;;;0.90;0.40;;;22.50;49.80;;;;;;6194081;28;20464;-69
2022/07/16 07:53:38;;;;;;;0.30;0.30;;;22.50;50.10;;;;;;6193558;28;20058;-69
2022/07/16 07:56:39;;;;;;;0.77;0.50;;;22.50;49.90;;;;;;6193817;28;20038;-69
2022/07/16 07:59:39;;;;;;;0.60;0.50;;;22.50;49.90;;;;;;6194281;28;20069;-70
2022/07/16 08:02:47;;;;;;;0.63;0.40;;;22.50;50.10;;;;;;6199225;28;20033;-70
2022/07/16 08:05:47;;;;;;;1.35;0.85;;;22.50;50.70;;;;;;6198882;28;20030;-69
2022/07/16 08:08:48;;;;;;;0.40;0.40;;;22.50;50.70;;;;;;6198535;28;20037;-70
2022/07/16 08:11:48;;;;;;;1.17;0.50;;;22.50;50.30;;;;;;6198640;28;20117;-69
2022/07/16 08:14:49;;;;;;;0.30;0.30;;;22.50;50.70;;;;;;6197906;28;20041;-70
2022/07/16 08:17:50;;;;;;;0.50;0.40;;;22.50;50.40;;;;;;6198703;28;20057;-70
2022/07/16 08:20:50;;;;;;;0.32;0.32;;;22.50;50.60;;;;;;6198612;28;20481;-70
2022/07/16 08:27:11;;;;;;;0.60;0.50;;;22.50;51.40;;;;;;6198132;28;20026;-70
2022/07/16 08:30:11;;;;;;;0.43;0.38;;;22.50;50.70;;;;;;6198282;28;20081;-70
2022/07/16 08:33:12;;;;;;;0.50;0.50;;;22.50;50.80;;;;;;6198324;28;20038;-70
2022/07/16 08:36:13;;;;;;;0.52;0.50;;;22.40;50.70;;;;;;6198138;28;20053;-69
2022/07/16 08:39:13;;;;;;;0.60;0.40;;;22.50;50.90;;;;;;6198323;28;20062;-70
2022/07/16 08:42:14;;;;;;;0.70;0.50;;;22.40;50.90;;;;;;6197736;28;20026;-70
2022/07/16 08:45:20;;;;;;;0.50;0.40;;;22.40;50.70;;;;;;6197742;28;20397;-68
2022/07/16 08:48:20;;;;;;;0.45;0.45;;;22.50;50.80;;;;;;6197334;28;20054;-67
2022/07/16 08:51:32;;;;;;;1.15;0.50;;;22.40;50.80;;;;;;6198061;28;20484;-69
2022/07/16 08:54:33;;;;;;;0.85;0.55;;;22.40;50.90;;;;;;6197397;28;20037;-70
2022/07/16 08:57:37;;;;;;;1.10;0.63;;;22.40;50.90;;;;;;6197352;28;20054;-70
2022/07/16 09:00:39;;;;;;;0.40;0.40;;;22.40;51.00;;;;;;6173021;28;20398;-69
2022/07/16 09:03:40;;;;;;;0.60;0.52;;;22.40;51.00;;;;;;6182334;28;20014;-69
2022/07/16 09:06:40;;;;;;;0.60;0.50;;;22.40;51.00;;;;;;6197354;28;20049;-69
2022/07/16 09:09:41;;;;;;;0.50;0.50;;;22.40;51.00;;;;;;6197346;28;20022;-69
2022/07/16 09:12:44;;;;;;;0.65;0.50;;;22.40;51.10;;;;;;6197249;28;20040;-70
2022/07/16 09:15:45;;;;;;;0.40;0.40;;;22.40;51.10;;;;;;6197089;28;20089;-69
2022/07/16 09:18:59;;;;;;;0.73;0.40;;;22.40;51.10;;;;;;6197162;28;20350;-69
2022/07/16 09:22:09;;;;;;;0.32;0.32;;;22.40;51.10;;;;;;6197608;28;20026;-70
2022/07/16 09:25:10;;;;;;;0.52;0.50;;;22.40;51.20;;;;;;6196891;28;20023;-67
2022/07/16 09:28:10;;;;;;;0.55;0.50;;;22.40;51.20;;;;;;6197001;28;20026;-70
2022/07/16 09:31:13;;;;;;;0.60;0.50;;;22.40;51.20;;;;;;6196706;28;20030;-68
2022/07/16 09:34:15;;;;;;;0.40;0.40;;;22.40;51.20;;;;;;6196897;28;20050;-68
2022/07/16 09:37:16;;;;;;;0.30;0.30;;;22.40;51.30;;;;;;6185521;28;20410;-68
2022/07/16 09:40:35;;;;;;;0.52;0.50;;;22.40;51.30;;;;;;6182737;28;20066;-68
2022/07/16 09:43:42;;;;;;;1.02;0.70;;;22.40;51.40;;;;;;6176767;28;20118;-69
2022/07/16 09:47:06;;;;;;;2.60;0.50;;;22.40;51.20;;;;;;6167911;28;20056;-70
2022/07/16 09:50:07;;;;;;;0.60;0.60;;;22.40;51.30;;;;;;6183357;28;20074;-70
2022/07/16 09:53:15;;;;;;;0.65;0.55;;;22.50;51.40;;;;;;6192471;28;20341;-70
2022/07/16 09:56:19;;;;;;;0.50;0.50;;;22.50;51.30;;;;;;6194602;28;20027;-70
2022/07/16 09:59:21;;;;;;;0.77;0.50;;;22.50;51.20;;;;;;6176251;28;20030;-70
2022/07/16 10:02:23;;;;;;;0.60;0.60;;;22.50;51.30;;;;;;6194106;28;20539;-70
2022/07/16 10:05:23;;;;;;;0.50;0.50;;;22.50;52.10;;;;;;6193518;28;20535;-71
2022/07/16 10:08:24;;;;;;;0.60;0.52;;;22.50;51.70;;;;;;6194099;28;20109;-71
2022/07/16 10:11:26;;;;;;;1.08;0.63;;;22.50;51.40;;;;;;6193456;28;20532;-72
2022/07/16 10:14:27;;;;;;;0.50;0.50;;;22.50;51.40;;;;;;6193158;28;20033;-72
2022/07/16 10:17:37;;;;;;;0.60;0.60;;;22.50;51.50;;;;;;6193803;28;20789;-71
2022/07/16 10:20:37;;;;;;;0.57;0.52;;;22.50;51.50;;;;;;6193448;28;20026;-72
2022/07/16 10:23:40;;;;;;;0.60;0.50;;;22.50;51.50;;;;;;6192236;28;20385;-72
2022/07/16 10:26:41;;;;;;;0.50;0.50;;;22.50;51.60;;;;;;6193410;28;20018;-72
2022/07/16 10:29:42;;;;;;;0.85;0.55;;;22.50;50.10;;;;;;6193465;28;20055;-72
2022/07/16 10:33:06;;;;;;;0.70;0.60;;;22.60;49.30;;;;;;6192332;28;20045;-72
2022/07/16 10:36:07;;;;;;;0.43;0.40;;;22.80;48.70;;;;;;6193182;28;20430;-71
2022/07/16 10:39:12;;;;;;;0.60;0.60;;;22.90;48.20;;;;;;6193102;28;20026;-71
2022/07/16 10:42:17;;;;;;;0.70;0.60;;;23.00;47.90;;;;;;6191482;28;20456;-71
2022/07/16 10:45:17;;;;;;;0.93;0.60;;;23.00;47.50;;;;;;6192671;28;20014;-72
2022/07/16 10:48:19;;;;;;;0.57;0.50;;;23.10;47.50;;;;;;6181048;28;20053;-71
2022/07/16 10:51:25;;;;;;;1.23;0.60;;;23.20;47.30;;;;;;6186940;28;20065;-72
2022/07/16 10:54:30;;;;;;;0.65;0.60;;;23.20;47.20;;;;;;6176083;28;20069;-72
2022/07/16 10:57:36;;;;;;;1.13;0.60;;;23.30;47.10;;;;;;6193448;28;20319;-71
2022/07/16 11:00:37;;;;;;;0.50;0.40;;;23.30;47.00;;;;;;6192664;28;20165;-71
2022/07/16 11:03:39;;;;;;;1.42;0.60;;;23.30;47.10;;;;;;6187421;28;20022;-72
2022/07/16 11:06:41;;;;;;;1.20;0.55;;;23.30;46.90;;;;;;6189525;28;20406;-72
2022/07/16 11:09:47;;;;;;;0.50;0.43;;;23.30;46.80;;;;;;6193022;28;20026;-72
2022/07/16 11:12:48;;;;;;;0.70;0.50;;;23.30;46.60;;;;;;6192441;28;20485;-72
2022/07/16 11:15:50;;;;;;;0.60;0.60;;;23.40;46.60;;;;;;6192450;28;20029;-71
2022/07/16 11:18:51;;;;;;;0.63;0.60;;;23.40;46.40;;;;;;6193380;28;20022;-74
2022/07/16 11:22:00;;;;;;;1.67;0.90;;;23.30;46.20;;;;;;6192439;28;20401;-71
2022/07/16 11:25:05;;;;;;;1.02;0.50;;;23.30;46.20;;;;;;6191768;28;20557;-71
2022/07/16 11:28:05;;;;;;;1.00;0.70;;;23.40;46.20;;;;;;6193403;28;20034;-72
2022/07/16 11:31:08;;;;;;;1.10;0.60;;;23.40;46.20;;;;;;6191516;28;20217;-72
2022/07/16 11:34:10;;;;;;;1.73;0.70;;;23.40;46.00;;;;;;6190390;28;20045;-72
2022/07/16 11:37:11;;;;;;;0.70;0.60;;;23.40;46.00;;;;;;6196468;28;20402;-72
2022/07/16 11:40:12;;;;;;;0.65;0.65;;;23.40;46.00;;;;;;6197393;28;20038;-71
2022/07/16 11:43:12;;;;;;;1.05;0.65;;;23.50;45.90;;;;;;6195475;28;20570;-71
2022/07/16 11:46:27;;;;;;;1.27;0.80;;;23.40;45.70;;;;;;6197097;28;20076;-72
2022/07/16 11:49:34;;;;;;;1.00;0.77;;;23.40;45.70;;;;;;6197351;28;20058;-72
2022/07/16 11:52:35;;;;;;;0.90;0.73;;;23.40;45.70;;;;;;6197097;28;20046;-72
2022/07/16 11:55:44;;;;;;;1.48;0.80;;;23.40;45.60;;;;;;6196223;28;20085;-72
2022/07/16 11:58:44;;;;;;;3.75;1.23;;;23.40;45.70;;;;;;6197328;28;20053;-72
2022/07/16 12:01:46;;;;;;;1.15;0.68;;;23.50;45.70;;;;;;6196724;28;20018;-72
2022/07/16 12:04:54;;;;;;;1.73;0.80;;;23.50;45.60;;;;;;6196552;28;20482;-72
2022/07/16 12:07:55;;;;;;;0.75;0.68;;;23.50;45.60;;;;;;6179380;28;20056;-72
2022/07/16 12:11:00;;;;;;;1.15;0.80;;;23.40;45.70;;;;;;6196562;28;20030;-72
2022/07/16 12:14:02;;;;;;;;;;;23.40;45.50;;;;;;6196779;28;20051;-72
2022/07/16 12:17:02;;;;;;;1.13;0.85;;;23.50;45.60;;;;;;6196700;28;19909;-70
2022/07/16 12:20:15;;;;;;;0.95;0.75;;;23.40;45.50;;;;;;6196534;28;20456;-70
2022/07/16 12:23:33;;;;;;;3.83;0.88;;;23.50;45.50;;;;;;6196177;28;20030;-71
2022/07/16 12:26:37;;;;;;;1.48;0.70;;;23.40;45.40;;;;;;6196484;28;20235;-71
2022/07/16 12:29:39;;;;;;;0.70;0.70;;;23.40;45.40;;;;;;6196605;28;20528;-72
2022/07/16 12:32:51;;;;;;;1.10;0.60;;;23.50;45.50;;;;;;6195685;28;20379;-71
2022/07/16 12:35:55;;;;;;;0.98;0.75;;;23.50;45.50;;;;;;6195952;28;20553;-72
2022/07/16 12:39:22;;;;;;;2.47;0.70;;;23.50;45.40;;;;;;6187146;28;20049;-72
2022/07/16 12:42:23;;;;;;;0.90;0.70;;;23.50;45.30;;;;;;6182827;28;20513;-72
2022/07/16 12:45:24;;;;;;;0.80;0.70;;;23.50;45.40;;;;;;6195360;28;20034;-72
2022/07/16 12:48:25;;;;;;;0.63;0.60;;;23.50;45.30;;;;;;6195078;28;20379;-72
2022/07/16 12:51:29;;;;;;;0.73;0.60;;;23.50;45.30;;;;;;6187725;28;20053;-72
2022/07/16 12:58:47;;;;;;;1.48;0.80;;;23.50;45.30;;;;;;6184734;28;20493;-72
2022/07/16 13:01:10;;;;;;;0.85;0.70;;;23.50;45.30;;;;;;6194776;28;20042;-72
2022/07/16 13:04:11;;;;;;;1.33;0.57;;;23.50;45.30;;;;;;6195135;28;20073;-72
2022/07/16 13:07:12;;;;;;;1.00;0.70;;;23.50;45.20;;;;;;6194889;28;20408;-72
2022/07/16 13:10:12;;;;;;;0.93;0.70;;;23.50;45.20;;;;;;6195732;28;20029;-72
2022/07/16 13:13:13;;;;;;;1.70;0.70;;;23.50;45.20;;;;;;6194619;28;20381;-72
2022/07/16 13:16:17;;;;;;;1.13;0.85;;;23.50;45.20;;;;;;6195140;28;20077;-71
2022/07/16 13:19:18;;;;;;;2.95;0.98;;;23.50;45.20;;;;;;6194504;28;20030;-71
2022/07/16 13:22:18;;;;;;;2.22;1.00;;;23.50;45.20;;;;;;6194990;28;20559;-72
2022/07/16 13:25:19;;;;;;;1.20;0.80;;;23.50;45.10;;;;;;6194246;28;20108;-71
2022/07/16 13:28:20;;;;;;;1.02;0.70;;;23.50;45.10;;;;;;6194848;28;20113;-71
2022/07/16 13:31:21;;;;;;;1.20;0.90;;;23.50;45.20;;;;;;6194665;28;20339;-71
2022/07/16 13:34:22;;;;;;;2.40;0.82;;;23.50;45.10;;;;;;6193916;28;20035;-71
2022/07/16 13:37:22;;;;;;;1.08;0.70;;;23.50;45.80;;;;;;6194507;28;20038;-72
2022/07/16 13:40:24;;;;;;;0.65;0.65;;;23.50;45.10;;;;;;6193690;28;20395;-71
2022/07/16 13:43:25;;;;;;;1.42;0.73;;;23.50;45.10;;;;;;6193724;28;20032;-71
2022/07/16 13:46:25;;;;;;;2.25;0.93;;;23.50;45.10;;;;;;6194286;28;20220;-71
2022/07/16 13:49:26;;;;;;;0.90;0.70;;;23.50;45.10;;;;;;6194262;28;20054;-71
2022/07/16 13:52:27;;;;;;;2.30;0.55;;;23.50;45.10;;;;;;6193633;28;20045;-71
2022/07/16 13:55:27;;;;;;;3.08;0.75;;;23.50;44.90;;;;;;6193511;28;20031;-71
2022/07/16 13:58:28;;;;;;;1.55;0.70;;;23.50;44.90;;;;;;6193370;28;20299;-71
2022/07/16 14:01:28;;;;;;;2.03;0.90;;;23.50;45.00;;;;;;6194296;28;20026;-71
2022/07/16 14:04:29;;;;;;;3.13;0.82;;;23.50;45.00;;;;;;6192853;28;20022;-71
2022/07/16 14:07:30;;;;;;;0.95;0.73;;;23.30;46.40;;;;;;6193892;28;20030;-71
2022/07/16 14:10:31;;;;;;;0.65;0.55;;;23.20;46.60;;;;;;6193806;28;20038;-71
2022/07/16 14:13:32;;;;;;;1.27;0.85;;;23.10;46.80;;;;;;6192723;28;20034;-71
2022/07/16 14:16:32;;;;;;;0.60;0.60;;;23.00;47.10;;;;;;6193659;28;20033;-71
2022/07/16 14:19:33;;;;;;;1.10;0.70;;;23.00;47.50;;;;;;6193620;28;20034;-71
2022/07/16 14:22:34;;;;;;;1.80;0.90;;;22.90;47.70;;;;;;6193770;28;20036;-71
2022/07/16 14:25:36;;;;;;;1.17;0.80;;;22.90;48.50;;;;;;6176687;28;20466;-71
2022/07/16 14:28:37;;;;;;;0.98;0.70;;;22.90;48.70;;;;;;6182895;28;20125;-71
2022/07/16 14:31:37;;;;;;;1.23;0.68;;;22.80;48.70;;;;;;6180411;28;20041;-71
2022/07/16 14:34:38;;;;;;;0.93;0.60;;;22.80;48.70;;;;;;6192315;28;20030;-71
2022/07/16 14:37:41;;;;;;;0.68;0.60;;;22.80;48.90;;;;;;6192860;28;20478;-71
2022/07/16 14:40:42;;;;;;;1.20;0.70;;;22.80;48.90;;;;;;6193265;28;20037;-71
2022/07/16 14:43:42;;;;;;;0.68;0.65;;;22.80;48.90;;;;;;6191591;28;20029;-70
2022/07/16 14:46:43;;;;;;;1.27;0.77;;;22.80;49.00;;;;;;6192677;28;20058;-71
2022/07/16 14:49:44;;;;;;;1.27;0.60;;;22.80;49.00;;;;;;6192896;28;20064;-71
2022/07/16 14:52:45;;;;;;;1.05;0.60;;;22.80;49.20;;;;;;6192725;28;20476;-71
2022/07/16 14:55:46;;;;;;;1.20;0.80;;;22.80;49.30;;;;;;6192171;28;20465;-72
2022/07/16 14:58:46;;;;;;;1.80;0.70;;;22.80;49.30;;;;;;6193005;28;20022;-71
2022/07/16 15:01:47;;;;;;;1.00;0.80;;;22.80;49.40;;;;;;6192913;28;20022;-71
2022/07/16 15:04:48;;;;;;;0.88;0.70;;;22.80;49.60;;;;;;6192526;28;20466;-71
2022/07/16 15:07:50;;;;;;;0.60;0.60;;;22.80;49.60;;;;;;6193216;28;20647;-71
2022/07/16 15:10:51;;;;;;;0.88;0.60;;;22.70;49.60;;;;;;6192730;28;20428;-71
2022/07/16 15:13:52;;;;;;;1.45;0.77;;;22.80;49.80;;;;;;6192091;28;20180;-71
2022/07/16 15:16:52;;;;;;;0.68;0.68;;;22.70;49.60;;;;;;6192447;28;20277;-71
2022/07/16 15:19:53;;;;;;;0.57;0.57;;;22.70;49.60;;;;;;6192002;28;20033;-71
2022/07/16 15:22:53;;;;;;;0.60;0.60;;;22.70;49.70;;;;;;6191462;28;20023;-71
2022/07/16 15:25:54;;;;;;;0.60;0.60;;;22.70;49.80;;;;;;6191182;28;20392;-70
2022/07/16 15:28:55;;;;;;;1.13;0.60;;;22.70;49.90;;;;;;6192104;28;20030;-72
2022/07/16 15:31:56;;;;;;;0.70;0.52;;;22.70;49.80;;;;;;6191958;28;20042;-71
2022/07/16 15:34:57;;;;;;;1.10;0.80;;;22.70;50.00;;;;;;6191006;28;20030;-71
2022/07/16 15:37:57;;;;;;;0.85;0.60;;;22.70;49.90;;;;;;6192217;28;20046;-71
2022/07/16 15:40:59;;;;;;;0.82;0.70;;;22.70;50.00;;;;;;6189837;28;20038;-71
2022/07/16 15:43:59;;;;;;;0.60;0.57;;;22.70;50.00;;;;;;6190444;28;20038;-71
2022/07/16 15:47:00;;;;;;;0.80;0.60;;;22.70;50.00;;;;;;6192625;28;20227;-71
2022/07/16 15:50:01;;;;;;;0.60;0.60;;;22.70;50.20;;;;;;6191940;28;20056;-71
2022/07/16 15:53:01;;;;;;;0.70;0.70;;;22.70;50.20;;;;;;6191577;28;20485;-70
2022/07/16 15:56:02;;;;;;;0.60;0.60;;;22.70;50.20;;;;;;6192315;28;20038;-71
2022/07/16 15:59:03;;;;;;;0.68;0.63;;;22.70;50.30;;;;;;6192153;28;20109;-71